Time;durP1;ratioP1;P1;durP2;ratioP2;P2;SDS_P1;SDS_P2;PMS_P1;PMS_P2;Temp;Humidity;BMP_temperature;BMP_pressure;BME280_temperature;BME280_humidity;BME280_pressure;Samples;Min_cycle;Max_cycle;Signal;HPM_P1;HPM_P2
2021/09/20 00:00:48;;;;;;;5.47;5.03;;;;;21.60;100658.00;;;;2070738;28;20226;-59
2021/09/20 00:01:49;;;;;;;4.97;4.57;;;;;21.60;100639.00;;;;2067050;28;20225;-55
2021/09/20 00:02:49;;;;;;;5.30;4.80;;;;;21.60;100646.00;;;;2066730;28;20722;-57
2021/09/20 00:03:50;;;;;;;4.90;4.50;;;;;21.60;100651.00;;;;2070629;28;20214;-56
2021/09/20 00:04:50;;;;;;;5.30;4.90;;;;;21.60;100655.00;;;;2066923;28;20230;-57
2021/09/20 00:05:51;;;;;;;5.80;5.30;;;;;21.60;100644.00;;;;2065318;28;20223;-54
2021/09/20 00:06:51;;;;;;;4.80;4.40;;;;;21.60;100646.00;;;;2055250;28;20839;-57
2021/09/20 00:07:51;;;;;;;4.60;4.30;;;;;21.60;100651.00;;;;2071214;28;20323;-57
2021/09/20 00:08:52;;;;;;;5.30;4.80;;;;;21.50;100651.00;;;;2071171;28;20211;-57
2021/09/20 00:09:52;;;;;;;5.20;4.80;;;;;21.60;100649.00;;;;2062619;28;20626;-56
2021/09/20 00:10:53;;;;;;;5.00;4.50;;;;;21.60;100651.00;;;;2062751;28;21183;-56
2021/09/20 00:11:53;;;;;;;5.13;4.73;;;;;21.60;100646.00;;;;2067194;28;20283;-55
2021/09/20 00:12:53;;;;;;;5.00;4.50;;;;;21.60;100643.00;;;;2071021;28;20221;-57
2021/09/20 00:13:54;;;;;;;4.67;4.37;;;;;21.60;100649.00;;;;2069035;28;20582;-57
2021/09/20 00:14:54;;;;;;;5.27;4.80;;;;;21.60;100654.00;;;;2063754;28;20250;-58
2021/09/20 00:15:55;;;;;;;5.50;5.00;;;;;21.60;100650.00;;;;2062671;28;20313;-57
2021/09/20 00:16:55;;;;;;;4.60;4.20;;;;;21.60;100648.00;;;;2064790;28;20273;-55
2021/09/20 00:17:55;;;;;;;4.83;4.43;;;;;21.60;100655.00;;;;2062590;28;20219;-55
2021/09/20 00:18:56;;;;;;;4.57;4.17;;;;;21.60;100656.00;;;;2065799;28;20214;-54
2021/09/20 00:19:58;;;;;;;5.13;4.60;;;;;21.60;100657.00;;;;2070105;28;20218;-57
2021/09/20 00:20:58;;;;;;;4.57;4.28;;;;;21.60;100657.00;;;;2062629;28;20464;-56
2021/09/20 00:22:00;;;;;;;5.73;5.23;;;;;21.60;100658.00;;;;2059015;28;20611;-56
2021/09/20 00:23:01;;;;;;;4.85;4.45;;;;;21.60;100657.00;;;;2054092;28;20219;-57
2021/09/20 00:24:01;;;;;;;4.67;4.33;;;;;21.60;100648.00;;;;2065999;28;20297;-54
2021/09/20 00:25:03;;;;;;;4.87;4.47;;;;;21.60;100652.00;;;;2067302;28;20654;-57
2021/09/20 00:26:03;;;;;;;4.75;4.35;;;;;21.60;100657.00;;;;2063065;28;20306;-57
2021/09/20 00:27:06;;;;;;;5.07;4.67;;;;;21.60;100655.00;;;;2067393;28;20218;-54
2021/09/20 00:28:07;;;;;;;4.70;4.30;;;;;21.50;100648.00;;;;2064258;28;20706;-55
2021/09/20 00:29:07;;;;;;;4.97;4.57;;;;;21.60;100655.00;;;;2061423;28;20222;-56
2021/09/20 00:30:08;;;;;;;4.50;4.20;;;;;21.60;100649.00;;;;2063929;28;20215;-54
2021/09/20 00:31:08;;;;;;;4.27;3.97;;;;;21.60;100652.00;;;;2070127;28;21009;-56
2021/09/20 00:32:09;;;;;;;4.73;4.33;;;;;21.60;100655.00;;;;2070438;28;20458;-57
2021/09/20 00:33:09;;;;;;;5.50;5.10;;;;;21.60;100657.00;;;;2067639;28;20349;-58
2021/09/20 00:34:10;;;;;;;5.00;4.60;;;;;21.60;100647.00;;;;2071787;28;20460;-56
2021/09/20 00:35:10;;;;;;;4.77;4.37;;;;;21.60;100652.00;;;;2071608;28;20213;-57
2021/09/20 00:36:11;;;;;;;4.70;4.40;;;;;21.60;100647.00;;;;2071706;28;20207;-58
2021/09/20 00:37:12;;;;;;;4.97;4.57;;;;;21.50;100648.00;;;;2071882;28;20453;-54
2021/09/20 00:38:12;;;;;;;4.30;4.00;;;;;21.50;100651.00;;;;2071544;28;20210;-57
2021/09/20 00:39:13;;;;;;;4.50;4.17;;;;;21.50;100654.00;;;;2071047;28;20210;-57
2021/09/20 00:40:13;;;;;;;4.30;4.00;;;;;21.50;100648.00;;;;2071360;28;20308;-57
2021/09/20 00:41:13;;;;;;;5.07;4.67;;;;;21.60;100655.00;;;;2063984;28;20265;-57
2021/09/20 00:42:14;;;;;;;4.40;4.10;;;;;21.50;100662.00;;;;2070019;28;20214;-54
2021/09/20 00:43:14;;;;;;;4.20;3.90;;;;;21.50;100655.00;;;;2068802;28;20214;-57
2021/09/20 00:44:14;;;;;;;5.07;4.67;;;;;21.50;100654.00;;;;2063155;28;20214;-57
2021/09/20 00:45:15;;;;;;;4.47;4.17;;;;;21.60;100648.00;;;;2067296;28;20722;-57
2021/09/20 00:46:15;;;;;;;5.00;4.60;;;;;21.50;100659.00;;;;2063571;28;20836;-57
2021/09/20 00:47:16;;;;;;;4.67;4.27;;;;;21.50;100657.00;;;;2063405;28;20215;-54
2021/09/20 00:48:16;;;;;;;4.87;4.47;;;;;21.50;100659.00;;;;2069283;28;21095;-56
2021/09/20 00:49:16;;;;;;;4.47;4.07;;;;;21.50;100660.00;;;;2064623;28;20215;-55
2021/09/20 00:50:17;;;;;;;4.43;4.10;;;;;21.50;100660.00;;;;2058404;28;21030;-55
2021/09/20 00:51:17;;;;;;;4.80;4.43;;;;;21.50;100656.00;;;;2070919;28;20214;-56
2021/09/20 00:52:17;;;;;;;4.77;4.37;;;;;21.50;100662.00;;;;2070342;28;20202;-56
2021/09/20 00:53:18;;;;;;;4.20;3.90;;;;;21.50;100669.00;;;;2070983;28;20374;-57
2021/09/20 00:54:18;;;;;;;5.33;4.60;;;;;21.50;100667.00;;;;2071641;28;20221;-54
2021/09/20 00:55:19;;;;;;;4.80;4.40;;;;;21.50;100668.00;;;;2066058;28;20219;-56
2021/09/20 00:56:19;;;;;;;4.80;4.40;;;;;21.50;100661.00;;;;2069287;28;20642;-57
2021/09/20 00:57:19;;;;;;;4.53;4.10;;;;;21.50;100664.00;;;;2067737;28;20210;-57
2021/09/20 00:58:20;;;;;;;4.87;4.47;;;;;21.50;100668.00;;;;2063045;28;20211;-57
2021/09/20 00:59:20;;;;;;;5.17;4.53;;;;;21.50;100669.00;;;;2069958;28;20206;-57
2021/09/20 01:00:21;;;;;;;4.80;4.40;;;;;21.50;100661.00;;;;2067589;28;20274;-55
2021/09/20 01:01:21;;;;;;;4.50;4.20;;;;;21.50;100666.00;;;;2063727;28;20211;-56
2021/09/20 01:02:21;;;;;;;4.57;4.20;;;;;21.50;100659.00;;;;2071572;28;20718;-57
2021/09/20 01:03:22;;;;;;;4.30;4.00;;;;;21.50;100663.00;;;;2071896;28;20765;-56
2021/09/20 01:04:22;;;;;;;4.90;4.50;;;;;21.50;100661.00;;;;2066077;28;20211;-57
2021/09/20 01:05:22;;;;;;;4.80;4.40;;;;;21.50;100661.00;;;;2065659;28;20254;-57
2021/09/20 01:06:23;;;;;;;4.77;4.37;;;;;21.50;100660.00;;;;2069447;28;20354;-54
2021/09/20 01:07:23;;;;;;;5.20;4.70;;;;;21.50;100663.00;;;;2070649;28;20218;-56
2021/09/20 01:08:24;;;;;;;4.53;4.13;;;;;21.50;100664.00;;;;2072121;28;20217;-56
2021/09/20 01:09:25;;;;;;;4.50;4.20;;;;;21.50;100659.00;;;;2067343;28;20729;-55
2021/09/20 01:10:25;;;;;;;5.00;4.60;;;;;21.50;100658.00;;;;2063010;28;20218;-54
2021/09/20 01:11:26;;;;;;;4.30;4.00;;;;;21.50;100665.00;;;;2060202;28;20610;-58
2021/09/20 01:12:27;;;;;;;4.83;4.27;;;;;21.50;100664.00;;;;2061613;28;20214;-54
2021/09/20 01:13:27;;;;;;;4.85;4.45;;;;;21.50;100665.00;;;;2063124;28;20583;-56
2021/09/20 01:14:28;;;;;;;5.90;4.50;;;;;21.50;100669.00;;;;2065365;28;20226;-55
2021/09/20 01:15:28;;;;;;;4.20;3.90;;;;;21.50;100660.00;;;;2069643;28;20265;-57
2021/09/20 01:16:28;;;;;;;4.67;4.27;;;;;21.50;100661.00;;;;2062759;28;20594;-57
2021/09/20 01:17:29;;;;;;;4.90;4.50;;;;;21.50;100662.00;;;;2070985;28;20218;-56
2021/09/20 01:18:29;;;;;;;4.23;3.93;;;;;21.50;100665.00;;;;2070708;28;20245;-53
2021/09/20 01:19:30;;;;;;;5.40;4.90;;;;;21.50;100676.00;;;;2071116;28;20222;-57
2021/09/20 01:20:30;;;;;;;4.67;4.27;;;;;21.50;100667.00;;;;2071516;28;20219;-57
2021/09/20 01:21:31;;;;;;;4.30;4.00;;;;;21.50;100659.00;;;;2071790;28;20211;-56
2021/09/20 01:22:31;;;;;;;4.33;4.03;;;;;21.50;100673.00;;;;2071778;28;20302;-57
2021/09/20 01:23:32;;;;;;;4.33;4.03;;;;;21.50;100665.00;;;;2069272;28;20220;-54
2021/09/20 01:24:32;;;;;;;4.53;4.13;;;;;21.50;100666.00;;;;2063524;28;20587;-57
2021/09/20 01:25:32;;;;;;;4.40;4.00;;;;;21.50;100670.00;;;;2061338;28;20219;-57
2021/09/20 01:26:33;;;;;;;4.03;3.73;;;;;21.50;100667.00;;;;2062879;28;20222;-56
2021/09/20 01:27:33;;;;;;;4.27;3.97;;;;;21.50;100672.00;;;;2062941;28;20219;-57
2021/09/20 01:28:33;;;;;;;4.93;4.53;;;;;21.50;100664.00;;;;2067756;28;20218;-54
2021/09/20 01:29:36;;;;;;;4.53;4.23;;;;;21.50;100658.00;;;;2070619;28;20296;-56
2021/09/20 01:30:37;;;;;;;4.93;4.53;;;;;21.50;100667.00;;;;2071149;28;20306;-56
2021/09/20 01:31:37;;;;;;;4.30;4.00;;;;;21.50;100658.00;;;;2070910;28;20221;-57
2021/09/20 01:32:38;;;;;;;4.60;4.30;;;;;21.40;100642.00;;;;2071230;28;20284;-54
2021/09/20 01:33:38;;;;;;;4.27;3.97;;;;;21.50;100655.00;;;;2071029;28;20710;-56
2021/09/20 01:34:38;;;;;;;4.70;4.30;;;;;21.50;100670.00;;;;2070858;28;20276;-56
2021/09/20 01:35:39;;;;;;;4.57;4.17;;;;;21.50;100668.00;;;;2071173;28;20214;-57
2021/09/20 01:36:39;;;;;;;4.77;4.43;;;;;21.50;100674.00;;;;2071177;28;20648;-56
2021/09/20 01:37:39;;;;;;;5.20;4.70;;;;;21.50;100665.00;;;;2069219;28;20215;-57
2021/09/20 01:38:40;;;;;;;4.50;4.20;;;;;21.50;100672.00;;;;2062876;28;20223;-54
2021/09/20 01:39:40;;;;;;;4.90;4.50;;;;;21.50;100674.00;;;;2062680;28;20215;-55
2021/09/20 01:40:41;;;;;;;6.47;4.70;;;;;21.50;100669.00;;;;2065426;28;20283;-57
2021/09/20 01:41:42;;;;;;;4.60;4.20;;;;;21.50;100671.00;;;;2070986;28;20293;-57
2021/09/20 01:42:42;;;;;;;5.72;5.22;;;;;21.50;100673.00;;;;2071071;28;20290;-56
2021/09/20 01:43:43;;;;;;;5.50;5.00;;;;;21.40;100669.00;;;;2062991;28;20668;-57
2021/09/20 01:44:43;;;;;;;4.50;4.20;;;;;21.50;100669.00;;;;2064334;28;20269;-57
2021/09/20 01:45:46;;;;;;;4.20;3.90;;;;;21.40;100664.00;;;;2067958;28;20207;-57
2021/09/20 01:46:51;;;;;;;4.88;4.47;;;;;21.50;100664.00;;;;2064829;28;20222;-55
2021/09/20 01:47:52;;;;;;;4.65;4.35;;;;;21.40;100669.00;;;;2062337;28;20261;-57
2021/09/20 01:48:52;;;;;;;4.60;4.20;;;;;21.40;100667.00;;;;2063288;28;20343;-56
2021/09/20 01:49:53;;;;;;;4.63;4.30;;;;;21.50;100666.00;;;;2063426;28;20461;-56
2021/09/20 01:50:53;;;;;;;4.53;4.20;;;;;21.50;100672.00;;;;2063198;28;20639;-57
2021/09/20 01:51:54;;;;;;;4.77;4.37;;;;;21.40;100673.00;;;;2068265;28;20222;-58
2021/09/20 01:52:55;;;;;;;4.75;4.40;;;;;21.50;100665.00;;;;2065954;28;20211;-56
2021/09/20 01:53:55;;;;;;;4.93;4.53;;;;;21.40;100659.00;;;;2061790;28;20237;-57
2021/09/20 01:54:56;;;;;;;4.60;4.20;;;;;21.50;100665.00;;;;2056486;28;20219;-55
2021/09/20 01:55:56;;;;;;;4.90;4.50;;;;;21.50;100670.00;;;;2066546;28;20654;-54
2021/09/20 01:56:57;;;;;;;4.80;4.37;;;;;21.50;100660.00;;;;2062758;28;20278;-55
2021/09/20 01:57:57;;;;;;;4.50;4.20;;;;;21.40;100662.00;;;;2066634;28;20304;-56
2021/09/20 01:58:57;;;;;;;4.73;4.30;;;;;21.40;100661.00;;;;2064959;28;20219;-57
2021/09/20 01:59:58;;;;;;;4.40;4.00;;;;;21.40;100666.00;;;;2071061;28;20238;-57
2021/09/20 02:00:58;;;;;;;4.60;4.30;;;;;21.50;100660.00;;;;2066183;28;20206;-57
2021/09/20 02:01:59;;;;;;;4.90;4.50;;;;;21.50;100664.00;;;;2068994;28;20301;-54
2021/09/20 02:02:59;;;;;;;4.53;4.23;;;;;21.40;100658.00;;;;2071544;28;20206;-56
2021/09/20 02:03:59;;;;;;;5.13;4.73;;;;;21.40;100666.00;;;;2068752;28;20218;-56
2021/09/20 02:05:00;;;;;;;5.07;4.67;;;;;21.50;100660.00;;;;2062609;28;20207;-57
2021/09/20 02:06:00;;;;;;;5.13;4.73;;;;;21.50;100662.00;;;;2065494;28;20214;-57
2021/09/20 02:07:00;;;;;;;4.63;4.33;;;;;21.40;100665.00;;;;2065959;28;20211;-57
2021/09/20 02:08:01;;;;;;;4.37;4.07;;;;;21.40;100662.00;;;;2071096;28;20210;-55
2021/09/20 02:09:01;;;;;;;4.13;3.83;;;;;21.40;100660.00;;;;2062899;28;20226;-56
2021/09/20 02:10:03;;;;;;;4.60;4.20;;;;;21.40;100662.00;;;;2062758;28;20218;-57
2021/09/20 02:11:04;;;;;;;4.82;4.43;;;;;21.40;100657.00;;;;2064592;28;20723;-56
2021/09/20 02:12:04;;;;;;;5.33;4.93;;;;;21.40;100657.00;;;;2064367;28;20305;-57
2021/09/20 02:13:04;;;;;;;5.40;5.00;;;;;21.40;100658.00;;;;2069722;28;20214;-57
2021/09/20 02:14:05;;;;;;;5.63;4.77;;;;;21.40;100655.00;;;;2067885;28;20691;-57
2021/09/20 02:15:06;;;;;;;5.03;4.63;;;;;21.40;100655.00;;;;2062712;28;20602;-56
2021/09/20 02:16:07;;;;;;;5.40;4.90;;;;;21.40;100656.00;;;;2060733;28;20215;-56
2021/09/20 02:17:07;;;;;;;4.70;4.30;;;;;21.40;100656.00;;;;2069835;28;20301;-54
2021/09/20 02:18:07;;;;;;;4.70;4.30;;;;;21.40;100658.00;;;;2071421;28;20218;-56
2021/09/20 02:19:09;;;;;;;5.03;4.63;;;;;21.40;100664.00;;;;2070938;28;20249;-57
2021/09/20 02:20:11;;;;;;;4.40;4.07;;;;;21.40;100662.00;;;;2064850;28;20238;-54
2021/09/20 02:21:13;;;;;;;5.50;5.00;;;;;21.40;100661.00;;;;2066363;28;20214;-55
2021/09/20 02:22:13;;;;;;;4.82;4.35;;;;;21.40;100667.00;;;;2071237;28;20242;-55
2021/09/20 02:23:14;;;;;;;5.03;4.73;;;;;21.40;100669.00;;;;2071305;28;20225;-55
2021/09/20 02:24:14;;;;;;;4.73;4.33;;;;;21.40;100659.00;;;;2071153;28;20217;-56
2021/09/20 02:25:14;;;;;;;5.20;4.80;;;;;21.40;100668.00;;;;2063567;28;20312;-57
2021/09/20 02:26:15;;;;;;;5.40;5.00;;;;;21.40;100669.00;;;;2063198;28;20226;-57
2021/09/20 02:27:15;;;;;;;5.67;4.87;;;;;21.40;100657.00;;;;2065384;28;20215;-56
2021/09/20 02:28:16;;;;;;;5.20;4.77;;;;;21.40;100663.00;;;;2071326;28;20214;-54
2021/09/20 02:29:16;;;;;;;4.77;4.37;;;;;21.40;100662.00;;;;2065975;28;20757;-56
2021/09/20 02:30:16;;;;;;;5.00;4.60;;;;;21.40;100655.00;;;;2066604;28;20213;-55
2021/09/20 02:31:17;;;;;;;4.77;4.37;;;;;21.40;100658.00;;;;2071261;28;20347;-55
2021/09/20 02:32:17;;;;;;;4.30;4.00;;;;;21.40;100666.00;;;;2067294;28;20242;-56
2021/09/20 02:33:17;;;;;;;5.10;4.70;;;;;21.40;100667.00;;;;2066443;28;20215;-56
2021/09/20 02:34:18;;;;;;;5.33;4.93;;;;;21.40;100659.00;;;;2063114;28;20968;-56
2021/09/20 02:35:18;;;;;;;4.93;4.43;;;;;21.40;100665.00;;;;2063174;28;20571;-57
2021/09/20 02:36:18;;;;;;;5.10;4.70;;;;;21.40;100665.00;;;;2063216;28;20219;-57
2021/09/20 02:37:19;;;;;;;4.90;4.60;;;;;21.40;100666.00;;;;2063257;28;20346;-57
2021/09/20 02:38:19;;;;;;;4.87;4.50;;;;;21.40;100666.00;;;;2062522;28;20270;-57
2021/09/20 02:39:19;;;;;;;5.10;4.70;;;;;21.40;100663.00;;;;2069900;28;20214;-57
2021/09/20 02:40:20;;;;;;;4.57;4.17;;;;;21.40;100670.00;;;;2070911;28;20226;-56
2021/09/20 02:41:20;;;;;;;4.80;4.40;;;;;21.40;100665.00;;;;2063744;28;20210;-55
2021/09/20 02:42:20;;;;;;;5.00;4.60;;;;;21.40;100666.00;;;;2071214;28;20210;-55
2021/09/20 02:43:21;;;;;;;5.20;4.80;;;;;21.40;100667.00;;;;2069835;28;20214;-56
2021/09/20 02:44:21;;;;;;;4.30;3.90;;;;;21.40;100662.00;;;;2064372;28;20234;-57
2021/09/20 02:45:21;;;;;;;5.20;4.80;;;;;21.40;100666.00;;;;2069385;28;20304;-57
2021/09/20 02:46:22;;;;;;;5.20;4.80;;;;;21.40;100664.00;;;;2065913;28;20577;-57
2021/09/20 02:47:22;;;;;;;4.70;4.30;;;;;21.40;100673.00;;;;2063189;28;20211;-55
2021/09/20 02:48:22;;;;;;;5.00;4.50;;;;;21.40;100669.00;;;;2062903;28;20211;-56
2021/09/20 02:49:23;;;;;;;5.53;5.03;;;;;21.40;100664.00;;;;2065827;28;20215;-56
2021/09/20 02:50:23;;;;;;;4.90;4.50;;;;;21.40;100673.00;;;;2066597;28;20206;-54
2021/09/20 02:51:23;;;;;;;4.73;4.33;;;;;21.40;100670.00;;;;2069381;28;20985;-56
2021/09/20 02:52:24;;;;;;;5.00;4.60;;;;;21.40;100663.00;;;;2062369;28;20221;-57
2021/09/20 02:53:24;;;;;;;4.77;4.40;;;;;21.40;100599.00;;;;2064956;28;20302;-57
2021/09/20 02:54:24;;;;;;;4.97;4.57;;;;;21.40;100665.00;;;;2068663;28;20213;-54
2021/09/20 02:55:25;;;;;;;5.23;4.83;;;;;21.40;100670.00;;;;2069628;28;20222;-55
2021/09/20 02:56:25;;;;;;;4.80;4.37;;;;;21.40;100670.00;;;;2071218;28;20833;-57
2021/09/20 02:57:25;;;;;;;5.30;4.90;;;;;21.40;100663.00;;;;2063658;28;20661;-55
2021/09/20 02:58:26;;;;;;;5.80;5.30;;;;;21.40;100673.00;;;;2070738;28;20241;-53
2021/09/20 02:59:26;;;;;;;5.20;4.40;;;;;21.40;100669.00;;;;2070551;28;20241;-55
2021/09/20 03:00:26;;;;;;;4.70;4.37;;;;;21.40;100666.00;;;;2065358;28;20587;-54
2021/09/20 03:01:27;;;;;;;4.93;4.60;;;;;21.40;100672.00;;;;2062773;28;20284;-54
2021/09/20 03:02:27;;;;;;;4.70;4.30;;;;;21.40;100674.00;;;;2064214;28;20215;-55
2021/09/20 03:03:28;;;;;;;5.93;5.50;;;;;21.40;100664.00;;;;2063047;28;20222;-57
2021/09/20 03:04:28;;;;;;;4.90;4.50;;;;;21.40;100664.00;;;;2062782;28;20214;-56
2021/09/20 03:05:28;;;;;;;5.00;4.60;;;;;21.30;100660.00;;;;2062293;28;20556;-61
2021/09/20 03:06:29;;;;;;;5.47;4.97;;;;;21.40;100663.00;;;;2062975;28;20306;-54
2021/09/20 03:07:29;;;;;;;4.90;4.50;;;;;21.40;100669.00;;;;2067165;28;20218;-56
2021/09/20 03:08:29;;;;;;;5.10;4.70;;;;;21.40;100659.00;;;;2062370;28;20216;-57
2021/09/20 03:09:30;;;;;;;4.83;4.47;;;;;21.40;100670.00;;;;2066561;28;20675;-57
2021/09/20 03:10:31;;;;;;;5.33;4.83;;;;;21.40;100668.00;;;;2064192;28;20261;-58
2021/09/20 03:11:31;;;;;;;5.03;4.68;;;;;21.40;100667.00;;;;2071038;28;20218;-55
2021/09/20 03:12:32;;;;;;;4.70;4.40;;;;;21.40;100660.00;;;;2071134;28;20716;-57
2021/09/20 03:13:32;;;;;;;5.10;4.70;;;;;21.40;100667.00;;;;2071053;28;20582;-57
2021/09/20 03:14:32;;;;;;;4.37;4.07;;;;;21.40;100664.00;;;;2064891;28;20206;-56
2021/09/20 03:15:33;;;;;;;5.57;5.17;;;;;21.40;100662.00;;;;2060436;28;20210;-56
2021/09/20 03:16:33;;;;;;;5.20;4.80;;;;;21.40;100663.00;;;;2062861;28;20215;-54
2021/09/20 03:17:33;;;;;;;4.70;4.40;;;;;21.40;100659.00;;;;2063759;28;20691;-56
2021/09/20 03:18:34;;;;;;;4.97;4.57;;;;;21.40;100656.00;;;;2069614;28;20237;-57
2021/09/20 03:19:34;;;;;;;5.30;4.90;;;;;21.40;100672.00;;;;2062165;28;20260;-57
2021/09/20 03:20:34;;;;;;;5.87;4.70;;;;;21.40;100666.00;;;;2060726;28;20226;-57
2021/09/20 03:21:35;;;;;;;4.53;4.20;;;;;21.40;100664.00;;;;2064854;28;20218;-57
2021/09/20 03:22:35;;;;;;;4.70;4.30;;;;;21.40;100664.00;;;;2070870;28;20210;-56
2021/09/20 03:23:35;;;;;;;5.07;4.67;;;;;21.40;100665.00;;;;2067493;28;20210;-55
2021/09/20 03:24:36;;;;;;;5.20;4.80;;;;;21.40;100662.00;;;;2062514;28;20218;-58
2021/09/20 03:25:36;;;;;;;5.10;4.70;;;;;21.40;100666.00;;;;2062985;28;20215;-57
2021/09/20 03:26:37;;;;;;;4.53;4.23;;;;;21.40;100661.00;;;;2067777;28;20218;-58
2021/09/20 03:27:37;;;;;;;5.20;4.80;;;;;21.40;100670.00;;;;2070780;28;20233;-57
2021/09/20 03:28:37;;;;;;;5.37;4.90;;;;;21.40;100673.00;;;;2070869;28;20288;-55
2021/09/20 03:29:38;;;;;;;5.07;4.67;;;;;21.40;100668.00;;;;2070306;28;20233;-56
2021/09/20 03:30:38;;;;;;;5.83;4.80;;;;;21.40;100672.00;;;;2070848;28;20621;-57
2021/09/20 03:31:38;;;;;;;5.30;4.90;;;;;21.40;100673.00;;;;2070865;28;20256;-57
2021/09/20 03:32:39;;;;;;;5.10;4.60;;;;;21.40;100679.00;;;;2070822;28;20687;-57
2021/09/20 03:33:39;;;;;;;5.23;4.73;;;;;21.40;100671.00;;;;2070656;28;20584;-57
2021/09/20 03:34:40;;;;;;;5.30;4.90;;;;;21.40;100677.00;;;;2067296;28;20211;-56
2021/09/20 03:35:40;;;;;;;5.53;5.13;;;;;21.40;100680.00;;;;2066143;28;20218;-57
2021/09/20 03:36:40;;;;;;;5.00;4.60;;;;;21.40;100673.00;;;;2062835;28;20211;-57
2021/09/20 03:37:44;;;;;;;5.30;4.90;;;;;21.40;100675.00;;;;2062415;28;20211;-57
2021/09/20 03:38:45;;;;;;;5.03;4.63;;;;;21.40;100682.00;;;;2062338;28;20221;-57
2021/09/20 03:39:45;;;;;;;4.93;4.60;;;;;21.40;100678.00;;;;2062670;28;20600;-57
2021/09/20 03:40:46;;;;;;;5.00;4.60;;;;;21.40;100684.00;;;;2062769;28;20229;-57
2021/09/20 03:41:46;;;;;;;5.27;4.87;;;;;21.40;100682.00;;;;2063074;28;20207;-55
2021/09/20 03:42:46;;;;;;;4.87;4.57;;;;;21.40;100681.00;;;;2070935;28;20218;-54
2021/09/20 03:43:47;;;;;;;5.00;4.60;;;;;21.40;100683.00;;;;2070751;28;21104;-55
2021/09/20 03:44:47;;;;;;;5.00;4.60;;;;;21.40;100684.00;;;;2062897;28;20211;-55
2021/09/20 03:45:47;;;;;;;5.20;4.80;;;;;21.40;100685.00;;;;2064728;28;20294;-57
2021/09/20 03:46:48;;;;;;;4.93;4.60;;;;;21.40;100688.00;;;;2067606;28;20265;-56
2021/09/20 03:47:48;;;;;;;4.93;4.53;;;;;21.40;100688.00;;;;2062719;28;20222;-55
2021/09/20 03:48:48;;;;;;;4.63;4.33;;;;;21.30;100690.00;;;;2061712;28;20230;-53
2021/09/20 03:49:49;;;;;;;4.70;4.40;;;;;21.40;100691.00;;;;2066521;28;20238;-55
2021/09/20 03:50:49;;;;;;;5.10;4.70;;;;;21.30;100695.00;;;;2062716;28;20222;-57
2021/09/20 03:51:49;;;;;;;4.70;4.30;;;;;21.30;100697.00;;;;2063070;28;20227;-57
2021/09/20 03:52:50;;;;;;;5.30;4.90;;;;;21.30;100684.00;;;;2071011;28;20229;-57
2021/09/20 03:53:50;;;;;;;5.63;5.13;;;;;21.30;100694.00;;;;2070819;28;20276;-56
2021/09/20 03:54:51;;;;;;;5.23;4.83;;;;;21.40;100696.00;;;;2070717;28;20233;-57
2021/09/20 03:55:51;;;;;;;5.40;4.90;;;;;21.30;100696.00;;;;2070738;28;20308;-57
2021/09/20 03:56:52;;;;;;;4.90;4.50;;;;;21.40;100701.00;;;;2070784;28;20768;-57
2021/09/20 03:57:52;;;;;;;5.17;4.80;;;;;21.40;100697.00;;;;2070123;28;20341;-56
2021/09/20 03:58:54;;;;;;;5.30;4.90;;;;;21.40;100698.00;;;;2070335;28;20222;-57
2021/09/20 03:59:54;;;;;;;5.30;4.90;;;;;21.40;100701.00;;;;2062406;28;20218;-57
2021/09/20 04:00:54;;;;;;;5.67;5.17;;;;;21.40;100700.00;;;;2063053;28;20218;-56
2021/09/20 04:01:56;;;;;;;5.03;4.63;;;;;21.40;100705.00;;;;2064277;28;20298;-54
2021/09/20 04:02:56;;;;;;;5.00;4.60;;;;;21.30;100700.00;;;;2064299;28;20227;-57
2021/09/20 04:03:58;;;;;;;5.60;5.10;;;;;21.40;100697.00;;;;2064349;28;20306;-56
2021/09/20 04:04:58;;;;;;;4.97;4.57;;;;;21.40;100704.00;;;;2067366;28;20218;-57
2021/09/20 04:05:59;;;;;;;4.67;4.20;;;;;21.40;100701.00;;;;2064004;28;20282;-55
2021/09/20 04:07:03;;;;;;;5.20;4.80;;;;;21.30;100700.00;;;;2067337;28;20211;-56
2021/09/20 04:08:03;;;;;;;4.70;4.30;;;;;21.30;100704.00;;;;2065389;28;20297;-57
2021/09/20 04:09:04;;;;;;;5.40;5.00;;;;;21.30;100702.00;;;;2071895;28;20214;-57
2021/09/20 04:10:04;;;;;;;4.97;4.57;;;;;21.40;100707.00;;;;2072236;28;20341;-57
2021/09/20 04:11:05;;;;;;;5.50;5.10;;;;;21.30;100704.00;;;;2071889;28;21168;-54
2021/09/20 04:12:07;;;;;;;4.73;4.33;;;;;21.40;100709.00;;;;2067064;28;20698;-55
2021/09/20 04:13:07;;;;;;;5.00;4.60;;;;;21.30;100703.00;;;;2066303;28;20691;-55
2021/09/20 04:14:08;;;;;;;5.50;5.00;;;;;21.30;100704.00;;;;2063961;28;20219;-57
2021/09/20 04:15:10;;;;;;;4.67;4.37;;;;;21.40;100708.00;;;;2063853;28;20686;-61
2021/09/20 04:16:10;;;;;;;5.22;4.82;;;;;21.40;100711.00;;;;2064226;28;20218;-57
2021/09/20 04:17:10;;;;;;;5.10;4.70;;;;;21.40;100709.00;;;;2063863;28;20294;-57
2021/09/20 04:18:11;;;;;;;5.63;5.17;;;;;21.40;100714.00;;;;2063540;28;20207;-57
2021/09/20 04:19:11;;;;;;;4.80;4.40;;;;;21.30;100714.00;;;;2063719;28;20730;-53
2021/09/20 04:20:12;;;;;;;4.67;4.37;;;;;21.40;100715.00;;;;2064034;28;20567;-55
2021/09/20 04:21:12;;;;;;;5.70;4.60;;;;;21.40;100709.00;;;;2066972;28;20218;-56
2021/09/20 04:22:12;;;;;;;5.40;5.00;;;;;21.40;100712.00;;;;2065576;28;20206;-57
2021/09/20 04:23:13;;;;;;;5.23;4.83;;;;;21.30;100719.00;;;;2064080;28;20297;-57
2021/09/20 04:24:13;;;;;;;5.30;4.80;;;;;21.30;100720.00;;;;2063355;28;20215;-57
2021/09/20 04:25:13;;;;;;;5.30;4.90;;;;;21.30;100713.00;;;;2063898;28;20210;-54
2021/09/20 04:26:14;;;;;;;5.37;4.97;;;;;21.30;100717.00;;;;2064104;28;20211;-56
2021/09/20 04:27:14;;;;;;;5.20;4.80;;;;;21.40;100722.00;;;;2064023;28;20211;-56
2021/09/20 04:28:15;;;;;;;4.87;4.47;;;;;21.40;100716.00;;;;2063943;28;20215;-57
2021/09/20 04:29:15;;;;;;;4.97;4.67;;;;;21.30;100719.00;;;;2070855;28;20210;-57
2021/09/20 04:30:15;;;;;;;5.07;4.67;;;;;21.30;100719.00;;;;2068679;28;20234;-54
2021/09/20 04:31:16;;;;;;;4.53;4.23;;;;;21.30;100718.00;;;;2064021;28;20261;-54
2021/09/20 04:32:16;;;;;;;5.40;4.90;;;;;21.30;100718.00;;;;2064708;28;20770;-55
2021/09/20 04:33:18;;;;;;;5.50;5.10;;;;;21.30;100722.00;;;;2068200;28;20302;-56
2021/09/20 04:34:18;;;;;;;4.90;4.50;;;;;21.30;100726.00;;;;2072049;28;20238;-57
2021/09/20 04:35:19;;;;;;;6.73;5.27;;;;;21.30;100719.00;;;;2071984;28;20211;-57
2021/09/20 04:36:19;;;;;;;5.47;5.07;;;;;21.30;100719.00;;;;2072037;28;20724;-57
2021/09/20 04:37:20;;;;;;;4.57;4.17;;;;;21.30;100719.00;;;;2070365;28;20225;-58
2021/09/20 04:38:21;;;;;;;4.80;4.40;;;;;21.30;100717.00;;;;2072012;28;20265;-56
2021/09/20 04:39:21;;;;;;;5.20;4.77;;;;;21.30;100722.00;;;;2071321;28;20689;-57
2021/09/20 04:40:22;;;;;;;4.67;4.33;;;;;21.40;100716.00;;;;2071926;28;20486;-57
2021/09/20 04:41:22;;;;;;;5.10;4.70;;;;;21.30;100725.00;;;;2066876;28;20261;-54
2021/09/20 04:42:22;;;;;;;4.80;4.40;;;;;21.30;100727.00;;;;2063879;28;20207;-56
2021/09/20 04:43:23;;;;;;;5.30;4.90;;;;;21.30;100730.00;;;;2069565;28;20683;-57
2021/09/20 04:44:23;;;;;;;4.80;4.40;;;;;21.40;100725.00;;;;2071420;28;20210;-57
2021/09/20 04:45:23;;;;;;;5.20;4.80;;;;;21.30;100726.00;;;;2071341;28;20220;-57
2021/09/20 04:46:24;;;;;;;5.10;4.70;;;;;21.30;100727.00;;;;2070046;28;20218;-57
2021/09/20 04:47:24;;;;;;;5.00;4.63;;;;;21.30;100729.00;;;;2070985;28;20245;-54
2021/09/20 04:48:24;;;;;;;5.67;5.27;;;;;21.30;100727.00;;;;2071567;28;20264;-56
2021/09/20 04:49:25;;;;;;;5.03;4.53;;;;;21.30;100727.00;;;;2070483;28;20788;-57
2021/09/20 04:50:25;;;;;;;5.20;4.80;;;;;21.30;100724.00;;;;2070602;28;20300;-53
2021/09/20 04:51:25;;;;;;;4.83;4.47;;;;;21.30;100724.00;;;;2068446;28;20217;-55
2021/09/20 04:52:26;;;;;;;5.30;4.80;;;;;21.30;100731.00;;;;2068694;28;20214;-56
2021/09/20 04:53:26;;;;;;;5.00;4.70;;;;;21.30;100732.00;;;;2063304;28;20218;-56
2021/09/20 04:54:27;;;;;;;5.00;4.60;;;;;21.30;100728.00;;;;2065821;28;20324;-56
2021/09/20 04:55:27;;;;;;;5.70;5.30;;;;;21.30;100731.00;;;;2064076;28;20343;-56
2021/09/20 04:56:27;;;;;;;5.07;4.67;;;;;21.30;100740.00;;;;2070926;28;20221;-55
2021/09/20 04:57:28;;;;;;;4.90;4.50;;;;;21.30;100740.00;;;;2071289;28;20725;-57
2021/09/20 04:58:28;;;;;;;5.10;4.70;;;;;21.30;100747.00;;;;2066517;28;20223;-56
2021/09/20 04:59:28;;;;;;;5.13;4.73;;;;;21.30;100742.00;;;;2062821;28;20215;-54